Time;durP1;ratioP1;P1;durP2;ratioP2;P2;SDS_P1;SDS_P2;PMS_P1;PMS_P2;Temp;Humidity;BMP_temperature;BMP_pressure;BME280_temperature;BME280_humidity;BME280_pressure;Samples;Min_cycle;Max_cycle;Signal;HPM_P1;HPM_P2
2023/01/09 00:12:08;;;;;;;96.00;38.80;;;;;;;5.86;100.00;99375.66;670311;1261;138387;-80
2023/01/09 00:27:13;;;;;;;93.10;39.30;;;;;;;5.84;100.00;99342.45;670132;1260;138671;-80
2023/01/09 00:42:21;;;;;;;79.00;34.90;;;;;;;5.85;100.00;99355.71;672967;1262;138981;-80
2023/01/09 00:57:24;;;;;;;76.50;35.20;;;;;;;5.95;100.00;99340.88;671835;1259;140084;-80
2023/01/09 01:12:27;;;;;;;83.70;35.60;;;;;;;6.06;100.00;99319.14;671772;1263;138434;-79
2023/01/09 01:27:30;;;;;;;88.10;34.50;;;;;;;6.16;100.00;99334.99;669198;1262;139650;-80
2023/01/09 01:42:34;;;;;;;94.50;38.50;;;;;;;6.22;100.00;99323.33;671796;1262;138765;-80
2023/01/09 01:57:41;;;;;;;87.90;38.80;;;;;;;6.18;100.00;99323.66;670678;1262;139059;-79
2023/01/09 02:12:45;;;;;;;82.30;37.00;;;;;;;6.18;100.00;99332.89;670105;1259;139551;-80
2023/01/09 02:28:03;;;;;;;93.40;40.90;;;;;;;6.15;100.00;99326.70;669762;1263;138865;-80
2023/01/09 02:43:08;;;;;;;83.50;32.00;;;;;;;6.19;100.00;99328.81;668655;1263;139245;-79
2023/01/09 02:58:22;;;;;;;76.80;32.20;;;;;;;6.30;100.00;99332.08;668751;1268;140239;-81
2023/01/09 03:13:32;;;;;;;88.00;34.40;;;;;;;6.29;100.00;99304.20;671029;1264;138645;-79
2023/01/09 03:28:36;;;;;;;76.90;34.00;;;;;;;6.23;100.00;99281.92;672124;1260;139466;-79
2023/01/09 03:43:40;;;;;;;84.30;33.70;;;;;;;6.23;100.00;99264.77;672721;1262;139604;-79
2023/01/09 03:58:43;;;;;;;85.10;32.40;;;;;;;6.20;100.00;99250.44;675977;1260;138666;-79
2023/01/09 04:13:46;;;;;;;90.30;34.20;;;;;;;5.65;100.00;99234.24;675987;1261;139716;-79
2023/01/09 04:28:49;;;;;;;90.40;35.60;;;;;;;5.65;100.00;99211.80;672236;1261;140217;-79
2023/01/09 04:43:53;;;;;;;86.00;34.80;;;;;;;5.67;100.00;99215.65;671548;1275;139428;-79
2023/01/09 04:58:56;;;;;;;85.60;32.00;;;;;;;5.65;100.00;99225.89;668997;1262;138836;-79
2023/01/09 05:13:59;;;;;;;79.40;33.90;;;;;;;5.76;100.00;99210.60;670168;1259;139705;-79
2023/01/09 05:29:03;;;;;;;77.10;32.40;;;;;;;5.67;100.00;99189.11;675455;1259;140816;-80
2023/01/09 05:44:06;;;;;;;84.50;35.40;;;;;;;5.62;100.00;99177.88;673451;1263;139963;-80
2023/01/09 05:59:09;;;;;;;201.20;101.60;;;;;;;5.64;100.00;99168.56;674352;1262;139238;-79
2023/01/09 06:14:12;;;;;;;150.50;64.90;;;;;;;5.63;100.00;99157.34;669419;1262;139486;-79
2023/01/09 06:29:16;;;;;;;103.80;44.10;;;;;;;5.59;100.00;99153.55;670514;1264;139115;-79
2023/01/09 06:44:19;;;;;;;92.50;36.30;;;;;;;5.60;100.00;99138.71;672479;1275;140148;-80
2023/01/09 06:59:22;;;;;;;90.10;35.70;;;;;;;5.51;100.00;99129.25;670169;1263;139881;-79
2023/01/09 07:14:26;;;;;;;88.20;34.20;;;;;;;5.50;100.00;99130.89;670480;1262;140241;-80
2023/01/09 07:29:29;;;;;;;110.60;45.40;;;;;;;5.56;100.00;99133.86;668830;1262;138665;-80
2023/01/09 07:44:33;;;;;;;224.00;78.40;;;;;;;5.58;100.00;99139.00;671569;1262;140286;-80
2023/01/09 07:59:36;;;;;;;161.30;65.00;;;;;;;5.64;100.00;99130.56;671817;1259;139240;-79
2023/01/09 08:14:40;;;;;;;145.00;53.90;;;;;;;5.76;100.00;99125.34;672590;1262;140082;-80
2023/01/09 08:29:43;;;;;;;212.10;95.80;;;;;;;5.84;100.00;99119.33;672675;1275;141051;-80
2023/01/09 09:00:09;;;;;;;119.50;48.50;;;;;;;6.32;100.00;99091.52;669740;1263;139009;-80
2023/01/09 09:15:15;;;;;;;95.60;40.10;;;;;;;6.68;100.00;99081.74;670535;1262;140388;-79
2023/01/09 09:30:19;;;;;;;104.40;49.40;;;;;;;6.87;100.00;99076.55;672851;1262;139037;-81
2023/01/09 09:45:25;;;;;;;234.70;81.50;;;;;;;6.93;100.00;99073.57;670806;1262;139047;-81
2023/01/09 10:00:29;;;;;;;121.80;49.60;;;;;;;7.01;100.00;99057.72;672244;1274;139097;-81
2023/01/09 10:15:44;;;;;;;144.20;58.70;;;;;;;7.06;100.00;99032.71;670221;1266;140294;-80
2023/01/09 10:31:55;;;;;;;134.70;53.50;;;;;;;7.09;100.00;99013.11;652335;1302;544860;-79
2023/01/09 10:47:00;;;;;;;107.20;45.30;;;;;;;7.33;100.00;99003.73;665726;1272;139013;-79
2023/01/09 11:02:17;;;;;;;144.00;54.10;;;;;;;7.37;100.00;98986.84;669726;1274;139065;-80
2023/01/09 11:17:25;;;;;;;275.00;122.80;;;;;;;7.48;100.00;98981.29;668960;1274;138450;-79
2023/01/09 11:32:30;;;;;;;219.70;85.00;;;;;;;7.46;100.00;98975.54;676266;1272;140777;-79
2023/01/09 11:47:39;;;;;;;213.30;78.90;;;;;;;7.48;100.00;98954.13;665295;1274;138838;-81
2023/01/09 12:02:51;;;;;;;132.30;49.20;;;;;;;7.39;100.00;98947.20;665240;1284;141143;-80
2023/01/09 12:18:41;;;;;;;170.70;69.00;;;;;;;7.24;100.00;98931.59;665627;1282;140660;-79
2023/01/09 12:33:44;;;;;;;134.10;59.50;;;;;;;7.17;100.00;98907.89;665799;1274;140755;-79
2023/01/09 12:49:28;;;;;;;136.70;54.50;;;;;;;7.21;100.00;98889.14;664102;1274;139005;-79
2023/01/09 13:04:36;;;;;;;113.80;48.50;;;;;;;7.20;100.00;98873.94;665831;1275;139702;-78
2023/01/09 13:19:42;;;;;;;79.90;35.40;;;;;;;7.22;100.00;98861.86;666711;1277;138449;-79
2023/01/09 13:34:50;;;;;;;642.10;266.60;;;;;;;7.28;100.00;98856.44;662547;1276;139492;-80
2023/01/09 13:50:04;;;;;;;710.30;344.00;;;;;;;7.25;100.00;98853.91;665501;1289;141455;-80
2023/01/09 14:05:35;;;;;;;172.80;69.20;;;;;;;7.19;100.00;98861.99;664826;1286;140447;-78
2023/01/09 14:20:42;;;;;;;341.70;123.10;;;;;;;7.30;100.00;98872.15;667100;1277;139646;-80
2023/01/09 14:36:13;;;;;;;161.60;67.20;;;;;;;7.34;100.00;98874.45;664814;1275;139694;-80
2023/01/09 14:51:19;;;;;;;301.40;105.30;;;;;;;7.27;100.00;98872.19;667175;1276;139521;-79
2023/01/09 15:06:25;;;;;;;292.40;105.40;;;;;;;7.33;100.00;98872.44;667393;1275;139054;-80
2023/01/09 15:21:30;;;;;;;193.70;71.90;;;;;;;7.37;100.00;98871.23;678305;1283;138837;-80
2023/01/09 15:36:36;;;;;;;186.70;68.90;;;;;;;7.32;100.00;98873.41;678478;1275;139903;-81
2023/01/09 15:51:45;;;;;;;229.00;83.30;;;;;;;7.42;100.00;98888.94;677502;1276;139272;-81
2023/01/09 16:06:51;;;;;;;273.40;109.90;;;;;;;7.54;100.00;98902.63;677701;1275;139234;-80
2023/01/09 16:22:02;;;;;;;223.70;84.90;;;;;;;7.63;100.00;98900.03;678569;1274;140811;-81
2023/01/09 16:37:05;;;;;;;177.10;74.50;;;;;;;7.71;100.00;98909.15;678080;1276;139374;-81
2023/01/09 16:52:16;;;;;;;196.90;81.10;;;;;;;7.81;100.00;98920.19;678366;1274;138994;-81
2023/01/09 17:07:26;;;;;;;292.60;123.10;;;;;;;7.94;100.00;98921.39;678179;1275;139100;-81
2023/01/09 17:22:29;;;;;;;154.80;72.00;;;;;;;7.98;100.00;98937.98;677618;1276;139158;-81
2023/01/09 17:37:33;;;;;;;113.30;56.90;;;;;;;8.01;100.00;98945.88;678170;1272;139534;-81
2023/01/09 17:52:36;;;;;;;70.90;40.20;;;;;;;8.01;100.00;98955.97;677752;1275;141005;-82
2023/01/09 18:07:39;;;;;;;96.50;52.60;;;;;;;8.05;100.00;98957.33;677939;1275;139514;-81
2023/01/09 18:22:43;;;;;;;110.50;53.60;;;;;;;8.13;100.00;98946.06;678563;1272;138676;-80
2023/01/09 18:37:47;;;;;;;80.60;43.30;;;;;;;8.14;100.00;98978.62;678080;1270;139318;-80
2023/01/09 18:52:51;;;;;;;212.00;88.70;;;;;;;8.11;100.00;98975.70;678511;1275;138708;-80
2023/01/09 19:07:56;;;;;;;87.50;39.50;;;;;;;8.07;100.00;98980.52;678796;1275;140305;-80
2023/01/09 19:23:02;;;;;;;93.90;41.30;;;;;;;7.98;100.00;98978.92;678178;1275;138539;-80
2023/01/09 19:38:06;;;;;;;88.60;39.00;;;;;;;7.83;100.00;99009.09;677985;1277;138821;-81
2023/01/09 19:53:10;;;;;;;70.70;31.60;;;;;;;7.67;100.00;99031.17;678455;1275;138319;-81
2023/01/09 20:08:16;;;;;;;99.00;43.70;;;;;;;7.55;100.00;99073.58;678610;1275;139560;-81
2023/01/09 20:23:26;;;;;;;88.50;35.60;;;;;;;7.49;100.00;99088.33;678395;1275;139109;-81
2023/01/09 20:38:31;;;;;;;106.40;43.90;;;;;;;7.53;100.00;99106.27;678231;1276;140235;-80
2023/01/09 20:53:34;;;;;;;145.40;54.40;;;;;;;7.57;100.00;99136.73;678137;1274;139511;-82
2023/01/09 21:24:27;;;;;;;78.60;36.50;;;;;;;7.64;100.00;99163.54;678339;1275;138664;-80
2023/01/09 21:39:31;;;;;;;66.00;33.10;;;;;;;7.63;100.00;99185.17;679034;1271;138392;-81
2023/01/09 21:54:35;;;;;;;73.70;34.50;;;;;;;7.65;100.00;99210.29;678600;1274;138634;-79
2023/01/09 22:09:38;;;;;;;73.00;32.20;;;;;;;7.66;100.00;99238.36;678153;1275;139382;-80
2023/01/09 22:24:43;;;;;;;83.60;34.80;;;;;;;7.69;100.00;99273.62;678807;1276;138215;-80
2023/01/09 22:39:46;;;;;;;294.00;105.60;;;;;;;7.67;100.00;99295.54;678359;1286;155518;-80
2023/01/09 22:54:50;;;;;;;107.90;41.40;;;;;;;7.66;100.00;99325.52;678287;1275;139402;-80
2023/01/09 23:09:55;;;;;;;118.80;42.90;;;;;;;7.65;100.00;99329.48;678299;1276;139041;-80
2023/01/09 23:24:58;;;;;;;100.70;38.80;;;;;;;7.71;100.00;99344.44;678413;1271;139282;-81
2023/01/09 23:40:03;;;;;;;116.10;44.40;;;;;;;7.75;100.00;99367.34;680114;1272;139341;-80
2023/01/09 23:55:06;;;;;;;277.30;92.30;;;;;;;7.80;100.00;99393.23;679839;1268;140022;-79
